Terminal Aerodrome Forecast
Issued by NWS

Current Version | Previous Version | Text Only | Print | Product List | Glossary On
Versions: 1 2 3 4 5 6 7 8 9 10 11 12 13
000
FTUS45 KRIW 251100
TAFRKS
TAF
KRKS 251140Z 2512/2612 26022G30KT P6SM SCT050
     FM260100 25013KT P6SM FEW100
     FM260600 24008KT P6SM FEW100=

USA.gov is the U.S. government's official web portal to all federal, state and local government web resources and services.